sensor_id;sensor_type;location;lat;lon;timestamp;pressure;altitude;pressure_sealevel;temperature;humidity
5609;BME280;2826;51.354;9.588;2023-10-13T00:01:46;97981.34;;;17.69;96.24
5609;BME280;2826;51.354;9.588;2023-10-13T00:04:14;97980.63;;;17.67;96.17
5609;BME280;2826;51.354;9.588;2023-10-13T00:06:42;97972.88;;;17.66;96.61
5609;BME280;2826;51.354;9.588;2023-10-13T00:09:10;97975.06;;;17.72;96.53
5609;BME280;2826;51.354;9.588;2023-10-13T00:11:43;97970.75;;;17.71;95.98
5609;BME280;2826;51.354;9.588;2023-10-13T00:14:13;97984.50;;;17.74;95.98
5609;BME280;2826;51.354;9.588;2023-10-13T00:16:42;97991.41;;;17.75;95.77
5609;BME280;2826;51.354;9.588;2023-10-13T00:19:27;97985.94;;;17.79;95.64
5609;BME280;2826;51.354;9.588;2023-10-13T00:21:54;97982.78;;;17.73;95.88
5609;BME280;2826;51.354;9.588;2023-10-13T00:24:34;97979.09;;;17.76;95.78
5609;BME280;2826;51.354;9.588;2023-10-13T00:27:09;97984.22;;;17.66;95.87
5609;BME280;2826;51.354;9.588;2023-10-13T00:29:51;97979.16;;;17.63;96.08
5609;BME280;2826;51.354;9.588;2023-10-13T00:32:30;97982.97;;;17.59;95.85
5609;BME280;2826;51.354;9.588;2023-10-13T00:34:58;97976.25;;;17.55;96.67
5609;BME280;2826;51.354;9.588;2023-10-13T00:37:30;97981.59;;;17.53;96.51
5609;BME280;2826;51.354;9.588;2023-10-13T00:40:07;97987.81;;;17.52;96.82
5609;BME280;2826;51.354;9.588;2023-10-13T00:42:52;97975.88;;;17.48;97.24
5609;BME280;2826;51.354;9.588;2023-10-13T00:45:22;97971.88;;;17.55;97.28
5609;BME280;2826;51.354;9.588;2023-10-13T00:47:49;97963.25;;;17.53;97.74
5609;BME280;2826;51.354;9.588;2023-10-13T00:50:21;97970.06;;;17.56;97.64
5609;BME280;2826;51.354;9.588;2023-10-13T00:52:49;97966.63;;;17.55;97.71
5609;BME280;2826;51.354;9.588;2023-10-13T00:55:18;97962.00;;;17.59;97.66
5609;BME280;2826;51.354;9.588;2023-10-13T00:57:44;97958.31;;;17.61;97.95
5609;BME280;2826;51.354;9.588;2023-10-13T01:00:12;97952.50;;;17.69;97.51
5609;BME280;2826;51.354;9.588;2023-10-13T01:02:45;97956.06;;;17.68;97.63
5609;BME280;2826;51.354;9.588;2023-10-13T01:05:20;97953.25;;;17.71;97.23
5609;BME280;2826;51.354;9.588;2023-10-13T01:07:46;97963.50;;;17.74;96.78
5609;BME280;2826;51.354;9.588;2023-10-13T01:10:16;97961.81;;;17.73;96.98
5609;BME280;2826;51.354;9.588;2023-10-13T01:12:42;97964.69;;;17.70;96.62
5609;BME280;2826;51.354;9.588;2023-10-13T01:15:09;97968.88;;;17.73;96.51
5609;BME280;2826;51.354;9.588;2023-10-13T01:17:36;97960.38;;;17.69;96.83
5609;BME280;2826;51.354;9.588;2023-10-13T01:20:05;97967.53;;;17.67;96.86
5609;BME280;2826;51.354;9.588;2023-10-13T01:22:31;97969.19;;;17.68;97.14
5609;BME280;2826;51.354;9.588;2023-10-13T01:24:59;97961.72;;;17.75;96.82
5609;BME280;2826;51.354;9.588;2023-10-13T01:27:35;97967.06;;;17.73;97.19
5609;BME280;2826;51.354;9.588;2023-10-13T01:30:04;97952.75;;;17.66;97.13
5609;BME280;2826;51.354;9.588;2023-10-13T01:32:35;97963.38;;;17.76;97.22
5609;BME280;2826;51.354;9.588;2023-10-13T01:35:06;97957.81;;;17.81;97.10
5609;BME280;2826;51.354;9.588;2023-10-13T01:37:32;97955.91;;;17.83;97.09
5609;BME280;2826;51.354;9.588;2023-10-13T01:40:00;97952.09;;;17.87;96.75
5609;BME280;2826;51.354;9.588;2023-10-13T01:42:26;97964.03;;;17.91;97.15
5609;BME280;2826;51.354;9.588;2023-10-13T01:44:53;97954.28;;;17.93;97.43
5609;BME280;2826;51.354;9.588;2023-10-13T01:47:30;97953.13;;;17.97;96.33
5609;BME280;2826;51.354;9.588;2023-10-13T01:49:58;97915.97;;;17.79;96.31
5609;BME280;2826;51.354;9.588;2023-10-13T01:52:32;97946.44;;;17.93;96.80
5609;BME280;2826;51.354;9.588;2023-10-13T01:55:00;97954.06;;;17.96;96.58
5609;BME280;2826;51.354;9.588;2023-10-13T01:57:26;97952.88;;;18.00;96.45
5609;BME280;2826;51.354;9.588;2023-10-13T01:59:53;97932.50;;;18.04;96.02
5609;BME280;2826;51.354;9.588;2023-10-13T02:02:21;97929.03;;;18.03;95.88
5609;BME280;2826;51.354;9.588;2023-10-13T02:04:54;97928.22;;;18.03;96.42
5609;BME280;2826;51.354;9.588;2023-10-13T02:07:21;97906.59;;;17.99;95.80
5609;BME280;2826;51.354;9.588;2023-10-13T02:09:52;97922.44;;;18.11;95.63
5609;BME280;2826;51.354;9.588;2023-10-13T02:12:21;97919.56;;;18.14;95.65
5609;BME280;2826;51.354;9.588;2023-10-13T02:15:03;97901.47;;;17.98;95.72
5609;BME280;2826;51.354;9.588;2023-10-13T02:17:30;97924.81;;;18.14;95.67
5609;BME280;2826;51.354;9.588;2023-10-13T02:20:06;97910.75;;;18.15;95.26
5609;BME280;2826;51.354;9.588;2023-10-13T02:22:40;97909.91;;;18.14;95.48
5609;BME280;2826;51.354;9.588;2023-10-13T02:25:15;97920.41;;;18.14;95.19
5609;BME280;2826;51.354;9.588;2023-10-13T02:28:01;97916.44;;;18.09;95.94
5609;BME280;2826;51.354;9.588;2023-10-13T02:30:27;97915.03;;;18.16;95.47
5609;BME280;2826;51.354;9.588;2023-10-13T02:32:54;97902.78;;;18.17;95.52
5609;BME280;2826;51.354;9.588;2023-10-13T02:35:21;97899.19;;;18.18;95.17
5609;BME280;2826;51.354;9.588;2023-10-13T02:37:56;97896.69;;;18.16;95.58
5609;BME280;2826;51.354;9.588;2023-10-13T02:40:23;97891.53;;;18.14;95.51
5609;BME280;2826;51.354;9.588;2023-10-13T02:42:50;97891.22;;;18.19;95.40
5609;BME280;2826;51.354;9.588;2023-10-13T02:45:17;97895.38;;;18.22;95.32
5609;BME280;2826;51.354;9.588;2023-10-13T02:47:49;97892.66;;;18.23;95.00
5609;BME280;2826;51.354;9.588;2023-10-13T02:50:35;97890.25;;;18.20;95.21
5609;BME280;2826;51.354;9.588;2023-10-13T02:53:04;97890.13;;;18.22;94.89
5609;BME280;2826;51.354;9.588;2023-10-13T02:55:30;97895.38;;;18.22;95.00
5609;BME280;2826;51.354;9.588;2023-10-13T02:57:57;97882.00;;;18.25;94.59
5609;BME280;2826;51.354;9.588;2023-10-13T03:00:25;97882.84;;;18.25;94.85
5609;BME280;2826;51.354;9.588;2023-10-13T03:02:57;97886.31;;;18.26;95.00
5609;BME280;2826;51.354;9.588;2023-10-13T03:05:23;97881.91;;;18.26;94.58
5609;BME280;2826;51.354;9.588;2023-10-13T03:07:55;97881.44;;;18.33;94.31
5609;BME280;2826;51.354;9.588;2023-10-13T03:10:20;97868.44;;;18.31;94.52
5609;BME280;2826;51.354;9.588;2023-10-13T03:12:54;97839.66;;;18.18;94.39
5609;BME280;2826;51.354;9.588;2023-10-13T03:15:21;97860.31;;;18.34;94.10
5609;BME280;2826;51.354;9.588;2023-10-13T03:17:56;97852.44;;;18.34;94.09
5609;BME280;2826;51.354;9.588;2023-10-13T03:20:24;97852.44;;;18.34;94.40
5609;BME280;2826;51.354;9.588;2023-10-13T03:22:57;97847.91;;;18.36;94.20
5609;BME280;2826;51.354;9.588;2023-10-13T03:25:22;97847.66;;;18.28;94.89
5609;BME280;2826;51.354;9.588;2023-10-13T03:27:55;97844.44;;;18.36;94.39
5609;BME280;2826;51.354;9.588;2023-10-13T03:30:31;97838.47;;;18.45;93.64
5609;BME280;2826;51.354;9.588;2023-10-13T03:33:05;97847.31;;;18.44;93.76
5609;BME280;2826;51.354;9.588;2023-10-13T03:35:37;97847.06;;;18.36;94.30
5609;BME280;2826;51.354;9.588;2023-10-13T03:38:06;97845.66;;;18.43;93.51
5609;BME280;2826;51.354;9.588;2023-10-13T03:40:40;97852.69;;;18.42;93.68
5609;BME280;2826;51.354;9.588;2023-10-13T03:43:07;97849.59;;;18.49;93.61
5609;BME280;2826;51.354;9.588;2023-10-13T03:45:37;97851.59;;;18.45;93.94
5609;BME280;2826;51.354;9.588;2023-10-13T03:48:07;97839.81;;;18.39;93.86
5609;BME280;2826;51.354;9.588;2023-10-13T03:50:54;97842.53;;;18.49;93.65
5609;BME280;2826;51.354;9.588;2023-10-13T03:53:29;97844.94;;;18.41;93.78
5609;BME280;2826;51.354;9.588;2023-10-13T03:55:59;97842.06;;;18.44;94.20
5609;BME280;2826;51.354;9.588;2023-10-13T03:58:34;97837.28;;;18.49;93.68
5609;BME280;2826;51.354;9.588;2023-10-13T04:01:01;97831.09;;;18.50;93.45
5609;BME280;2826;51.354;9.588;2023-10-13T04:03:30;97830.97;;;18.52;93.72
5609;BME280;2826;51.354;9.588;2023-10-13T04:06:00;97833.47;;;18.53;93.67
5609;BME280;2826;51.354;9.588;2023-10-13T04:08:31;97836.09;;;18.53;93.30
5609;BME280;2826;51.354;9.588;2023-10-13T04:11:41;97828.94;;;18.56;93.33
5609;BME280;2826;51.354;9.588;2023-10-13T04:14:37;97825.22;;;18.47;93.67
5609;BME280;2826;51.354;9.588;2023-10-13T04:17:18;97813.66;;;18.49;93.64
5609;BME280;2826;51.354;9.588;2023-10-13T04:19:51;97814.16;;;18.54;93.48
5609;BME280;2826;51.354;9.588;2023-10-13T04:22:33;97819.25;;;18.56;93.25
5609;BME280;2826;51.354;9.588;2023-10-13T04:25:14;97814.38;;;18.51;93.54
5609;BME280;2826;51.354;9.588;2023-10-13T04:28:05;97817.25;;;18.60;92.95
5609;BME280;2826;51.354;9.588;2023-10-13T04:30:41;97811.16;;;18.59;93.14
5609;BME280;2826;51.354;9.588;2023-10-13T04:33:23;97808.75;;;18.56;93.15
5609;BME280;2826;51.354;9.588;2023-10-13T04:36:04;97801.72;;;18.57;93.24
5609;BME280;2826;51.354;9.588;2023-10-13T04:38:40;97810.31;;;18.59;93.04
5609;BME280;2826;51.354;9.588;2023-10-13T04:41:21;97802.69;;;18.56;93.45
5609;BME280;2826;51.354;9.588;2023-10-13T04:43:48;97801.84;;;18.55;92.95
5609;BME280;2826;51.354;9.588;2023-10-13T04:46:21;97792.88;;;18.58;93.07
5609;BME280;2826;51.354;9.588;2023-10-13T04:49:20;97786.69;;;18.59;92.72
5609;BME280;2826;51.354;9.588;2023-10-13T04:51:56;97785.00;;;18.58;92.58
5609;BME280;2826;51.354;9.588;2023-10-13T04:54:25;97784.78;;;18.61;93.08
5609;BME280;2826;51.354;9.588;2023-10-13T04:57:10;97783.69;;;18.63;92.77
5609;BME280;2826;51.354;9.588;2023-10-13T04:59:52;97775.59;;;18.66;92.19
5609;BME280;2826;51.354;9.588;2023-10-13T05:02:33;97775.25;;;18.60;92.91
5609;BME280;2826;51.354;9.588;2023-10-13T05:05:21;97765.19;;;18.65;92.92
5609;BME280;2826;51.354;9.588;2023-10-13T05:08:12;97757.22;;;18.66;92.46
5609;BME280;2826;51.354;9.588;2023-10-13T05:10:57;97751.34;;;18.74;92.67
5609;BME280;2826;51.354;9.588;2023-10-13T05:13:55;97751.09;;;18.77;92.46
5609;BME280;2826;51.354;9.588;2023-10-13T05:16:40;97744.41;;;18.73;92.34
5609;BME280;2826;51.354;9.588;2023-10-13T05:19:24;97740.81;;;18.74;92.27
5609;BME280;2826;51.354;9.588;2023-10-13T05:22:09;97742.25;;;18.78;92.27
5609;BME280;2826;51.354;9.588;2023-10-13T05:24:54;97738.19;;;18.74;92.59
5609;BME280;2826;51.354;9.588;2023-10-13T05:27:38;97722.69;;;18.71;92.47
5609;BME280;2826;51.354;9.588;2023-10-13T05:30:22;97726.78;;;18.64;92.90
5609;BME280;2826;51.354;9.588;2023-10-13T05:33:07;97725.56;;;18.68;92.71
5609;BME280;2826;51.354;9.588;2023-10-13T05:35:51;97724.84;;;18.66;93.05
5609;BME280;2826;51.354;9.588;2023-10-13T05:38:35;97714.09;;;18.69;92.80
5609;BME280;2826;51.354;9.588;2023-10-13T05:41:22;97708.00;;;18.68;92.81
5609;BME280;2826;51.354;9.588;2023-10-13T05:44:06;97711.47;;;18.69;93.01
5609;BME280;2826;51.354;9.588;2023-10-13T05:46:50;97714.81;;;18.71;92.93
5609;BME280;2826;51.354;9.588;2023-10-13T05:49:48;97707.88;;;18.70;92.92
5609;BME280;2826;51.354;9.588;2023-10-13T05:52:18;97705.25;;;18.70;92.98
5609;BME280;2826;51.354;9.588;2023-10-13T05:55:05;97714.91;;;18.70;93.40
5609;BME280;2826;51.354;9.588;2023-10-13T05:57:51;97719.56;;;18.77;92.98
5609;BME280;2826;51.354;9.588;2023-10-13T06:00:39;97711.69;;;18.77;92.63
5609;BME280;2826;51.354;9.588;2023-10-13T06:03:24;97717.19;;;18.74;92.87
5609;BME280;2826;51.354;9.588;2023-10-13T06:06:07;97708.34;;;18.75;93.06
5609;BME280;2826;51.354;9.588;2023-10-13T06:08:51;97696.53;;;18.81;93.19
5609;BME280;2826;51.354;9.588;2023-10-13T06:11:35;97698.06;;;18.84;92.97
5609;BME280;2826;51.354;9.588;2023-10-13T06:14:21;97710.50;;;18.82;93.01
5609;BME280;2826;51.354;9.588;2023-10-13T06:17:05;97708.56;;;18.84;92.82
5609;BME280;2826;51.354;9.588;2023-10-13T06:19:50;97706.91;;;18.83;93.27
5609;BME280;2826;51.354;9.588;2023-10-13T06:22:34;97714.50;;;18.86;93.14
5609;BME280;2826;51.354;9.588;2023-10-13T06:25:19;97722.16;;;18.89;93.44
5609;BME280;2826;51.354;9.588;2023-10-13T06:28:04;97716.09;;;18.88;93.28
5609;BME280;2826;51.354;9.588;2023-10-13T06:30:58;97704.72;;;18.88;93.32
5609;BME280;2826;51.354;9.588;2023-10-13T06:33:26;97710.44;;;18.93;93.17
5609;BME280;2826;51.354;9.588;2023-10-13T06:35:56;97702.56;;;18.93;93.05
5609;BME280;2826;51.354;9.588;2023-10-13T06:38:23;97704.94;;;18.96;93.24
5609;BME280;2826;51.354;9.588;2023-10-13T06:40:52;97699.69;;;18.96;93.39
5609;BME280;2826;51.354;9.588;2023-10-13T06:43:17;97699.69;;;18.96;93.67
5609;BME280;2826;51.354;9.588;2023-10-13T06:45:47;97688.66;;;19.02;93.34
5609;BME280;2826;51.354;9.588;2023-10-13T06:48:24;97694.63;;;19.04;92.96
5609;BME280;2826;51.354;9.588;2023-10-13T06:50:51;97703.97;;;19.09;93.13
5609;BME280;2826;51.354;9.588;2023-10-13T06:53:18;97693.19;;;19.12;92.98
5609;BME280;2826;51.354;9.588;2023-10-13T06:55:45;97704.28;;;19.15;92.75
5609;BME280;2826;51.354;9.588;2023-10-13T06:58:15;97669.81;;;18.97;92.82
5609;BME280;2826;51.354;9.588;2023-10-13T07:00:43;97704.28;;;19.15;93.29
5609;BME280;2826;51.354;9.588;2023-10-13T07:03:18;97697.22;;;19.16;92.86
5609;BME280;2826;51.354;9.588;2023-10-13T07:05:46;97689.28;;;19.06;93.34
5609;BME280;2826;51.354;9.588;2023-10-13T07:08:15;97707.38;;;19.21;92.91
5609;BME280;2826;51.354;9.588;2023-10-13T07:10:49;97708.91;;;19.23;92.79
5609;BME280;2826;51.354;9.588;2023-10-13T07:13:17;97710.78;;;19.32;92.43
5609;BME280;2826;51.354;9.588;2023-10-13T07:15:45;97700.06;;;19.24;91.98
5609;BME280;2826;51.354;9.588;2023-10-13T07:18:12;97702.63;;;19.36;91.49
5609;BME280;2826;51.354;9.588;2023-10-13T07:20:39;97705.00;;;19.39;91.58
5609;BME280;2826;51.354;9.588;2023-10-13T07:23:11;97699.59;;;19.40;91.66
5609;BME280;2826;51.354;9.588;2023-10-13T07:25:50;97683.59;;;19.22;91.88
5609;BME280;2826;51.354;9.588;2023-10-13T07:28:18;97700.81;;;19.36;91.61
5609;BME280;2826;51.354;9.588;2023-10-13T07:30:44;97694.88;;;19.34;91.91
5609;BME280;2826;51.354;9.588;2023-10-13T07:33:36;97696.41;;;19.37;91.67
5609;BME280;2826;51.354;9.588;2023-10-13T07:36:05;97705.97;;;19.38;91.36
5609;BME280;2826;51.354;9.588;2023-10-13T07:38:38;97705.84;;;19.39;91.96
5609;BME280;2826;51.354;9.588;2023-10-13T07:41:08;97704.53;;;19.33;92.04
5609;BME280;2826;51.354;9.588;2023-10-13T07:43:34;97707.91;;;19.36;91.69
5609;BME280;2826;51.354;9.588;2023-10-13T07:46:02;97709.69;;;19.35;91.67
5609;BME280;2826;51.354;9.588;2023-10-13T07:48:36;97713.28;;;19.34;91.91
5609;BME280;2826;51.354;9.588;2023-10-13T07:51:04;97717.94;;;19.30;92.46
5609;BME280;2826;51.354;9.588;2023-10-13T07:53:35;97718.78;;;19.31;92.11
5609;BME280;2826;51.354;9.588;2023-10-13T07:56:07;97723.34;;;19.29;92.33
5609;BME280;2826;51.354;9.588;2023-10-13T07:58:35;97690.69;;;19.10;92.42
5609;BME280;2826;51.354;9.588;2023-10-13T08:01:13;97721.81;;;19.26;92.22
5609;BME280;2826;51.354;9.588;2023-10-13T08:03:44;97709.94;;;18.99;93.19
5609;BME280;2826;51.354;9.588;2023-10-13T08:06:12;97725.38;;;19.25;92.47
5609;BME280;2826;51.354;9.588;2023-10-13T08:08:54;97714.84;;;19.25;92.42
5609;BME280;2826;51.354;9.588;2023-10-13T08:11:34;97710.56;;;19.24;92.33
5609;BME280;2826;51.354;9.588;2023-10-13T08:14:04;97705.19;;;19.26;92.59
5609;BME280;2826;51.354;9.588;2023-10-13T08:16:38;97708.66;;;19.26;92.75
5609;BME280;2826;51.354;9.588;2023-10-13T08:19:25;97705.06;;;19.27;92.37
5609;BME280;2826;51.354;9.588;2023-10-13T08:21:54;97708.00;;;19.13;92.75
5609;BME280;2826;51.354;9.588;2023-10-13T08:24:24;97703.78;;;19.22;92.71
5609;BME280;2826;51.354;9.588;2023-10-13T08:26:56;97697.44;;;19.24;92.73
5609;BME280;2826;51.354;9.588;2023-10-13T08:29:41;97683.41;;;19.14;92.55
5609;BME280;2826;51.354;9.588;2023-10-13T08:32:31;97694.56;;;19.27;92.56
5609;BME280;2826;51.354;9.588;2023-10-13T08:35:12;97685.44;;;19.31;92.38
5609;BME280;2826;51.354;9.588;2023-10-13T08:37:56;97674.66;;;19.35;92.36
5609;BME280;2826;51.354;9.588;2023-10-13T08:40:29;97667.88;;;19.32;92.52
5609;BME280;2826;51.354;9.588;2023-10-13T08:43:15;97667.88;;;19.32;93.15
5609;BME280;2826;51.354;9.588;2023-10-13T08:45:43;97617.16;;;19.20;92.54
5609;BME280;2826;51.354;9.588;2023-10-13T08:48:26;97661.47;;;19.46;92.43
5609;BME280;2826;51.354;9.588;2023-10-13T08:50:57;97654.72;;;19.53;92.24
5609;BME280;2826;51.354;9.588;2023-10-13T08:53:31;97651.44;;;19.61;91.91
5609;BME280;2826;51.354;9.588;2023-10-13T08:56:00;97651.31;;;19.63;91.67
5609;BME280;2826;51.354;9.588;2023-10-13T08:58:32;97644.22;;;19.63;91.76
5609;BME280;2826;51.354;9.588;2023-10-13T09:01:17;97650.75;;;19.69;91.02
5609;BME280;2826;51.354;9.588;2023-10-13T09:03:58;97648.69;;;19.72;90.86
5609;BME280;2826;51.354;9.588;2023-10-13T09:06:48;97645.84;;;19.85;90.21
5609;BME280;2826;51.354;9.588;2023-10-13T09:09:29;97638.53;;;19.89;89.63
5609;BME280;2826;51.354;9.588;2023-10-13T09:12:22;97633.50;;;19.86;89.66
5609;BME280;2826;51.354;9.588;2023-10-13T09:14:53;97627.59;;;19.94;88.88
5609;BME280;2826;51.354;9.588;2023-10-13T09:17:24;97634.78;;;19.92;89.08
5609;BME280;2826;51.354;9.588;2023-10-13T09:20:00;97617.22;;;19.92;88.66
5609;BME280;2826;51.354;9.588;2023-10-13T09:22:51;97622.69;;;20.01;88.15
5609;BME280;2826;51.354;9.588;2023-10-13T09:25:33;97630.88;;;20.07;87.82
5609;BME280;2826;51.354;9.588;2023-10-13T09:28:01;97624.34;;;20.02;87.81
5609;BME280;2826;51.354;9.588;2023-10-13T09:30:29;97628.91;;;20.09;87.38
5609;BME280;2826;51.354;9.588;2023-10-13T09:32:59;97623.38;;;20.13;87.09
5609;BME280;2826;51.354;9.588;2023-10-13T09:35:28;97624.06;;;20.15;86.98
5609;BME280;2826;51.354;9.588;2023-10-13T09:37:58;97617.56;;;20.19;86.74
5609;BME280;2826;51.354;9.588;2023-10-13T09:40:24;97609.69;;;20.09;86.72
5609;BME280;2826;51.354;9.588;2023-10-13T09:42:55;97599.44;;;20.26;85.87
5609;BME280;2826;51.354;9.588;2023-10-13T09:45:30;97590.00;;;20.23;85.74
5609;BME280;2826;51.354;9.588;2023-10-13T09:48:03;97589.84;;;20.15;85.37
5609;BME280;2826;51.354;9.588;2023-10-13T09:50:36;97592.69;;;20.43;84.64
5609;BME280;2826;51.354;9.588;2023-10-13T09:53:10;97594.34;;;20.54;84.07
5609;BME280;2826;51.354;9.588;2023-10-13T09:55:40;97583.78;;;20.63;83.50
5609;BME280;2826;51.354;9.588;2023-10-13T09:58:12;97586.28;;;20.75;82.81
5609;BME280;2826;51.354;9.588;2023-10-13T10:00:43;97578.38;;;20.75;82.37
5609;BME280;2826;51.354;9.588;2023-10-13T10:03:14;97583.50;;;20.76;81.93
5609;BME280;2826;51.354;9.588;2023-10-13T10:06:05;97572.13;;;20.96;81.33
5609;BME280;2826;51.354;9.588;2023-10-13T10:08:39;97575.19;;;21.01;80.79
5609;BME280;2826;51.354;9.588;2023-10-13T10:11:30;97572.66;;;21.09;80.25
5609;BME280;2826;51.354;9.588;2023-10-13T10:14:10;97570.00;;;21.19;79.39
5609;BME280;2826;51.354;9.588;2023-10-13T10:16:57;97563.75;;;21.20;79.02
5609;BME280;2826;51.354;9.588;2023-10-13T10:19:27;97563.06;;;21.18;78.40
5609;BME280;2826;51.354;9.588;2023-10-13T10:22:01;97560.25;;;21.30;77.93
5609;BME280;2826;51.354;9.588;2023-10-13T10:24:30;97566.44;;;21.10;77.44
5609;BME280;2826;51.354;9.588;2023-10-13T10:26:58;97560.16;;;21.21;76.75
5609;BME280;2826;51.354;9.588;2023-10-13T10:29:25;97552.50;;;21.28;76.18
5609;BME280;2826;51.354;9.588;2023-10-13T10:31:53;97563.84;;;21.28;75.73
5609;BME280;2826;51.354;9.588;2023-10-13T10:34:20;97564.69;;;21.29;76.03
5609;BME280;2826;51.354;9.588;2023-10-13T10:36:48;97564.81;;;21.37;75.04
5609;BME280;2826;51.354;9.588;2023-10-13T10:39:19;97561.72;;;21.42;75.19
5609;BME280;2826;51.354;9.588;2023-10-13T10:41:47;97558.69;;;21.37;74.71
5609;BME280;2826;51.354;9.588;2023-10-13T10:44:18;97544.03;;;21.24;74.17
5609;BME280;2826;51.354;9.588;2023-10-13T10:47:10;97532.69;;;21.14;74.00
5609;BME280;2826;51.354;9.588;2023-10-13T10:49:45;97549.28;;;21.24;73.75
5609;BME280;2826;51.354;9.588;2023-10-13T10:52:16;97544.28;;;21.31;73.67
5609;BME280;2826;51.354;9.588;2023-10-13T10:54:45;97535.09;;;21.35;73.11
5609;BME280;2826;51.354;9.588;2023-10-13T10:57:17;97535.25;;;21.34;72.99
5609;BME280;2826;51.354;9.588;2023-10-13T10:59:44;97547.59;;;21.43;72.43
5609;BME280;2826;51.354;9.588;2023-10-13T11:02:12;97545.09;;;21.41;71.53
5609;BME280;2826;51.354;9.588;2023-10-13T11:04:43;97552.69;;;21.45;70.81
5609;BME280;2826;51.354;9.588;2023-10-13T11:07:23;97530.75;;;21.82;70.26
5609;BME280;2826;51.354;9.588;2023-10-13T11:09:51;97530.78;;;21.72;69.14
5609;BME280;2826;51.354;9.588;2023-10-13T11:12:30;97520.09;;;21.92;68.70
5609;BME280;2826;51.354;9.588;2023-10-13T11:15:00;97507.53;;;22.04;67.75
5609;BME280;2826;51.354;9.588;2023-10-13T11:17:29;97512.13;;;22.02;67.77
5609;BME280;2826;51.354;9.588;2023-10-13T11:20:11;97511.28;;;22.19;67.99
5609;BME280;2826;51.354;9.588;2023-10-13T11:22:42;97516.44;;;22.21;67.09
5609;BME280;2826;51.354;9.588;2023-10-13T11:25:20;97509.50;;;22.20;67.23
5609;BME280;2826;51.354;9.588;2023-10-13T11:27:48;97507.44;;;22.32;66.53
5609;BME280;2826;51.354;9.588;2023-10-13T11:30:26;97475.97;;;22.21;66.53
5609;BME280;2826;51.354;9.588;2023-10-13T11:33:09;97501.59;;;22.47;66.31
5609;BME280;2826;51.354;9.588;2023-10-13T11:35:38;97506.91;;;22.47;66.01
5609;BME280;2826;51.354;9.588;2023-10-13T11:38:24;97505.84;;;22.57;65.73
5609;BME280;2826;51.354;9.588;2023-10-13T11:40:53;97500.78;;;22.64;65.66
5609;BME280;2826;51.354;9.588;2023-10-13T11:43:41;97492.00;;;22.64;65.15
5609;BME280;2826;51.354;9.588;2023-10-13T11:46:32;97493.56;;;22.75;65.46
5609;BME280;2826;51.354;9.588;2023-10-13T11:49:22;97483.00;;;22.75;65.58
5609;BME280;2826;51.354;9.588;2023-10-13T11:52:00;97493.09;;;23.06;64.16
5609;BME280;2826;51.354;9.588;2023-10-13T11:54:45;97488.75;;;23.31;62.91
5609;BME280;2826;51.354;9.588;2023-10-13T11:57:12;97485.69;;;23.44;62.97
5609;BME280;2826;51.354;9.588;2023-10-13T11:59:42;97487.84;;;23.41;62.34
5609;BME280;2826;51.354;9.588;2023-10-13T12:02:19;97479.66;;;23.26;62.65
5609;BME280;2826;51.354;9.588;2023-10-13T12:05:06;97469.06;;;23.26;62.50
5609;BME280;2826;51.354;9.588;2023-10-13T12:07:42;97448.09;;;23.32;62.38
5609;BME280;2826;51.354;9.588;2023-10-13T12:10:11;97460.34;;;23.33;62.07
5609;BME280;2826;51.354;9.588;2023-10-13T12:12:42;97472.06;;;23.31;60.70
5609;BME280;2826;51.354;9.588;2023-10-13T12:15:11;97467.16;;;23.44;61.15
5609;BME280;2826;51.354;9.588;2023-10-13T12:17:51;97472.88;;;23.91;60.20
5609;BME280;2826;51.354;9.588;2023-10-13T12:20:19;97459.38;;;24.11;59.30
5609;BME280;2826;51.354;9.588;2023-10-13T12:22:58;97447.09;;;24.18;59.63
5609;BME280;2826;51.354;9.588;2023-10-13T12:25:37;97466.78;;;24.65;57.78
5609;BME280;2826;51.354;9.588;2023-10-13T12:28:21;97467.94;;;24.63;56.96
5609;BME280;2826;51.354;9.588;2023-10-13T12:30:48;97457.16;;;24.64;55.74
5609;BME280;2826;51.354;9.588;2023-10-13T12:33:17;97463.53;;;24.38;56.33
5609;BME280;2826;51.354;9.588;2023-10-13T12:35:55;97474.91;;;24.06;57.58
5609;BME280;2826;51.354;9.588;2023-10-13T12:38:33;97418.78;;;23.69;58.44
5609;BME280;2826;51.354;9.588;2023-10-13T12:41:17;97460.16;;;23.86;59.35
5609;BME280;2826;51.354;9.588;2023-10-13T12:44:07;97447.59;;;23.80;59.74
5609;BME280;2826;51.354;9.588;2023-10-13T12:46:51;97458.78;;;23.66;59.66
5609;BME280;2826;51.354;9.588;2023-10-13T12:49:36;97443.53;;;23.51;59.92
5609;BME280;2826;51.354;9.588;2023-10-13T12:52:28;97449.31;;;23.46;60.15
5609;BME280;2826;51.354;9.588;2023-10-13T12:54:57;97436.03;;;23.30;60.96
5609;BME280;2826;51.354;9.588;2023-10-13T12:57:35;97442.34;;;23.37;60.89
5609;BME280;2826;51.354;9.588;2023-10-13T13:00:12;97444.66;;;23.40;60.91
5609;BME280;2826;51.354;9.588;2023-10-13T13:02:59;97433.63;;;23.45;61.11
5609;BME280;2826;51.354;9.588;2023-10-13T13:05:26;97428.78;;;23.40;61.16
5609;BME280;2826;51.354;9.588;2023-10-13T13:07:56;97423.34;;;23.42;60.99
5609;BME280;2826;51.354;9.588;2023-10-13T13:10:23;97428.31;;;23.45;60.84
5609;BME280;2826;51.354;9.588;2023-10-13T13:13:02;97425.25;;;23.23;60.87
5609;BME280;2826;51.354;9.588;2023-10-13T13:15:29;97415.84;;;23.29;60.64
5609;BME280;2826;51.354;9.588;2023-10-13T13:17:56;97421.47;;;23.26;61.08
5609;BME280;2826;51.354;9.588;2023-10-13T13:20:23;97421.50;;;22.99;61.86
5609;BME280;2826;51.354;9.588;2023-10-13T13:22:55;97415.53;;;22.89;61.87
5609;BME280;2826;51.354;9.588;2023-10-13T13:25:28;97422.03;;;23.03;61.36
5609;BME280;2826;51.354;9.588;2023-10-13T13:27:58;97407.44;;;22.90;61.80
5609;BME280;2826;51.354;9.588;2023-10-13T13:30:30;97409.53;;;23.21;61.04
5609;BME280;2826;51.354;9.588;2023-10-13T13:32:58;97405.41;;;23.19;60.91
5609;BME280;2826;51.354;9.588;2023-10-13T13:35:29;97408.03;;;23.10;60.93
5609;BME280;2826;51.354;9.588;2023-10-13T13:38:02;97403.38;;;23.13;60.94
5609;BME280;2826;51.354;9.588;2023-10-13T13:40:37;97392.22;;;23.27;60.62
5609;BME280;2826;51.354;9.588;2023-10-13T13:43:04;97395.34;;;23.31;60.22
5609;BME280;2826;51.354;9.588;2023-10-13T13:45:32;97383.50;;;23.43;60.05
5609;BME280;2826;51.354;9.588;2023-10-13T13:48:00;97380.41;;;23.73;59.55
5609;BME280;2826;51.354;9.588;2023-10-13T13:50:33;97366.50;;;23.71;58.88
5609;BME280;2826;51.354;9.588;2023-10-13T13:53:06;97355.06;;;23.54;58.71
5609;BME280;2826;51.354;9.588;2023-10-13T13:55:35;97325.41;;;23.25;58.73
5609;BME280;2826;51.354;9.588;2023-10-13T13:58:05;97352.75;;;23.42;58.90
5609;BME280;2826;51.354;9.588;2023-10-13T14:00:33;97343.31;;;23.40;58.66
5609;BME280;2826;51.354;9.588;2023-10-13T14:03:08;97352.09;;;23.48;58.91